sensor_id;sensor_type;location;lat;lon;timestamp;temperature;humidity
1778;DHT22;886;50.082;8.222;2022-07-12T00:01:58;18.10;98.40
1778;DHT22;886;50.082;8.222;2022-07-12T00:04:25;18.10;98.40
1778;DHT22;886;50.082;8.222;2022-07-12T00:06:53;18.10;98.30
1778;DHT22;886;50.082;8.222;2022-07-12T00:09:20;18.00;98.40
1778;DHT22;886;50.082;8.222;2022-07-12T00:11:47;18.00;98.50
1778;DHT22;886;50.082;8.222;2022-07-12T00:14:16;18.10;98.60
1778;DHT22;886;50.082;8.222;2022-07-12T00:16:43;18.10;98.60
1778;DHT22;886;50.082;8.222;2022-07-12T00:19:10;18.00;98.60
1778;DHT22;886;50.082;8.222;2022-07-12T00:21:37;18.00;98.80
1778;DHT22;886;50.082;8.222;2022-07-12T00:24:05;17.90;99.00
1778;DHT22;886;50.082;8.222;2022-07-12T00:26:32;18.00;98.90
1778;DHT22;886;50.082;8.222;2022-07-12T00:28:59;17.90;99.00
1778;DHT22;886;50.082;8.222;2022-07-12T00:31:27;17.90;99.20
1778;DHT22;886;50.082;8.222;2022-07-12T00:33:57;17.80;99.40
1778;DHT22;886;50.082;8.222;2022-07-12T00:36:24;17.80;99.40
1778;DHT22;886;50.082;8.222;2022-07-12T00:38:51;17.80;99.40
1778;DHT22;886;50.082;8.222;2022-07-12T00:41:19;17.70;99.60
1778;DHT22;886;50.082;8.222;2022-07-12T00:43:46;17.70;99.90
1778;DHT22;886;50.082;8.222;2022-07-12T00:46:14;17.70;99.90
1778;DHT22;886;50.082;8.222;2022-07-12T00:48:43;17.70;99.90
1778;DHT22;886;50.082;8.222;2022-07-12T00:51:11;17.70;99.90
1778;DHT22;886;50.082;8.222;2022-07-12T00:53:41;17.70;99.90
1778;DHT22;886;50.082;8.222;2022-07-12T00:56:08;17.70;99.90
1778;DHT22;886;50.082;8.222;2022-07-12T00:58:36;17.70;99.90
1778;DHT22;886;50.082;8.222;2022-07-12T01:01:03;17.60;99.90
1778;DHT22;886;50.082;8.222;2022-07-12T01:03:30;17.60;99.90
1778;DHT22;886;50.082;8.222;2022-07-12T01:05:59;17.50;99.90
1778;DHT22;886;50.082;8.222;2022-07-12T01:08:26;17.50;99.90
1778;DHT22;886;50.082;8.222;2022-07-12T01:10:54;17.50;99.90
1778;DHT22;886;50.082;8.222;2022-07-12T01:13:23;17.50;99.90
1778;DHT22;886;50.082;8.222;2022-07-12T01:15:51;17.40;99.90
1778;DHT22;886;50.082;8.222;2022-07-12T01:18:20;17.50;99.90
1778;DHT22;886;50.082;8.222;2022-07-12T01:20:47;17.50;99.90
1778;DHT22;886;50.082;8.222;2022-07-12T01:23:16;17.40;99.90
1778;DHT22;886;50.082;8.222;2022-07-12T01:25:46;17.30;99.90
1778;DHT22;886;50.082;8.222;2022-07-12T01:28:19;17.30;99.90
1778;DHT22;886;50.082;8.222;2022-07-12T01:30:46;17.40;99.90
1778;DHT22;886;50.082;8.222;2022-07-12T01:33:14;17.40;99.90
1778;DHT22;886;50.082;8.222;2022-07-12T01:35:42;17.40;99.90
1778;DHT22;886;50.082;8.222;2022-07-12T01:38:14;17.30;99.90
1778;DHT22;886;50.082;8.222;2022-07-12T01:40:42;17.30;99.90
1778;DHT22;886;50.082;8.222;2022-07-12T01:43:10;17.40;99.90
1778;DHT22;886;50.082;8.222;2022-07-12T01:45:39;17.50;99.90
1778;DHT22;886;50.082;8.222;2022-07-12T01:48:07;17.40;99.90
1778;DHT22;886;50.082;8.222;2022-07-12T01:50:35;17.30;99.90
1778;DHT22;886;50.082;8.222;2022-07-12T01:53:05;17.30;99.90
1778;DHT22;886;50.082;8.222;2022-07-12T01:55:35;17.30;99.90
1778;DHT22;886;50.082;8.222;2022-07-12T01:58:03;17.20;99.90
1778;DHT22;886;50.082;8.222;2022-07-12T02:00:31;17.20;99.90
1778;DHT22;886;50.082;8.222;2022-07-12T02:02:58;17.10;99.90
1778;DHT22;886;50.082;8.222;2022-07-12T02:05:26;17.10;99.90
1778;DHT22;886;50.082;8.222;2022-07-12T02:07:54;17.10;99.90
1778;DHT22;886;50.082;8.222;2022-07-12T02:10:21;17.10;99.90
1778;DHT22;886;50.082;8.222;2022-07-12T02:12:50;17.10;99.90
1778;DHT22;886;50.082;8.222;2022-07-12T02:15:17;17.20;99.90
1778;DHT22;886;50.082;8.222;2022-07-12T02:17:47;17.20;99.90
1778;DHT22;886;50.082;8.222;2022-07-12T02:20:17;17.10;99.90
1778;DHT22;886;50.082;8.222;2022-07-12T02:22:44;17.00;99.90
1778;DHT22;886;50.082;8.222;2022-07-12T02:25:11;16.90;99.90
1778;DHT22;886;50.082;8.222;2022-07-12T02:27:39;16.90;99.90
1778;DHT22;886;50.082;8.222;2022-07-12T02:30:09;17.00;99.90
1778;DHT22;886;50.082;8.222;2022-07-12T02:32:38;17.00;99.90
1778;DHT22;886;50.082;8.222;2022-07-12T02:35:06;16.90;99.90
1778;DHT22;886;50.082;8.222;2022-07-12T02:37:33;16.90;99.90
1778;DHT22;886;50.082;8.222;2022-07-12T02:40:05;16.80;99.90
1778;DHT22;886;50.082;8.222;2022-07-12T02:42:52;16.80;99.90
1778;DHT22;886;50.082;8.222;2022-07-12T02:45:21;16.80;99.90
1778;DHT22;886;50.082;8.222;2022-07-12T02:47:48;16.80;99.90
1778;DHT22;886;50.082;8.222;2022-07-12T02:50:15;16.80;99.90
1778;DHT22;886;50.082;8.222;2022-07-12T02:52:42;16.80;99.90
1778;DHT22;886;50.082;8.222;2022-07-12T02:55:10;16.80;99.90
1778;DHT22;886;50.082;8.222;2022-07-12T02:57:37;16.80;99.90
1778;DHT22;886;50.082;8.222;2022-07-12T03:00:04;16.70;99.90
1778;DHT22;886;50.082;8.222;2022-07-12T03:02:35;16.70;99.90
1778;DHT22;886;50.082;8.222;2022-07-12T03:05:07;16.60;99.90
1778;DHT22;886;50.082;8.222;2022-07-12T03:07:35;16.50;99.90
1778;DHT22;886;50.082;8.222;2022-07-12T03:10:02;16.50;99.90
1778;DHT22;886;50.082;8.222;2022-07-12T03:12:30;16.60;99.90
1778;DHT22;886;50.082;8.222;2022-07-12T03:15:00;16.60;99.90
1778;DHT22;886;50.082;8.222;2022-07-12T03:17:27;16.50;99.90
1778;DHT22;886;50.082;8.222;2022-07-12T03:19:56;16.50;99.90
1778;DHT22;886;50.082;8.222;2022-07-12T03:22:23;16.50;99.90
1778;DHT22;886;50.082;8.222;2022-07-12T03:24:50;16.40;99.90
1778;DHT22;886;50.082;8.222;2022-07-12T03:27:17;16.50;99.90
1778;DHT22;886;50.082;8.222;2022-07-12T03:29:44;16.50;99.90
1778;DHT22;886;50.082;8.222;2022-07-12T03:32:12;16.40;99.90
1778;DHT22;886;50.082;8.222;2022-07-12T03:34:39;16.50;99.90
1778;DHT22;886;50.082;8.222;2022-07-12T03:37:07;16.50;99.90
1778;DHT22;886;50.082;8.222;2022-07-12T03:39:34;16.50;99.90
1778;DHT22;886;50.082;8.222;2022-07-12T03:42:01;16.50;99.90
1778;DHT22;886;50.082;8.222;2022-07-12T03:44:28;16.50;99.90
1778;DHT22;886;50.082;8.222;2022-07-12T03:46:57;16.40;99.90
1778;DHT22;886;50.082;8.222;2022-07-12T03:49:25;16.40;99.90
1778;DHT22;886;50.082;8.222;2022-07-12T03:51:52;16.40;99.90
1778;DHT22;886;50.082;8.222;2022-07-12T03:54:20;16.40;99.90
1778;DHT22;886;50.082;8.222;2022-07-12T03:56:48;16.40;99.90
1778;DHT22;886;50.082;8.222;2022-07-12T03:59:33;16.40;99.90
1778;DHT22;886;50.082;8.222;2022-07-12T04:02:07;16.40;99.90
1778;DHT22;886;50.082;8.222;2022-07-12T04:04:34;16.40;99.90
1778;DHT22;886;50.082;8.222;2022-07-12T04:07:02;16.40;99.90
1778;DHT22;886;50.082;8.222;2022-07-12T04:09:31;16.40;99.90
1778;DHT22;886;50.082;8.222;2022-07-12T04:11:58;16.30;99.90
1778;DHT22;886;50.082;8.222;2022-07-12T04:14:25;16.40;99.90
1778;DHT22;886;50.082;8.222;2022-07-12T04:16:52;16.40;99.90
1778;DHT22;886;50.082;8.222;2022-07-12T04:19:20;16.40;99.90
1778;DHT22;886;50.082;8.222;2022-07-12T04:21:50;16.40;99.90
1778;DHT22;886;50.082;8.222;2022-07-12T04:24:17;16.40;99.90
1778;DHT22;886;50.082;8.222;2022-07-12T04:26:46;16.50;99.90
1778;DHT22;886;50.082;8.222;2022-07-12T04:29:13;16.30;99.90
1778;DHT22;886;50.082;8.222;2022-07-12T04:31:40;16.10;99.90
1778;DHT22;886;50.082;8.222;2022-07-12T04:34:07;16.20;99.90
1778;DHT22;886;50.082;8.222;2022-07-12T04:36:34;16.20;99.90
1778;DHT22;886;50.082;8.222;2022-07-12T04:39:02;16.20;99.90
1778;DHT22;886;50.082;8.222;2022-07-12T04:41:35;16.10;99.90
1778;DHT22;886;50.082;8.222;2022-07-12T04:44:04;16.30;99.90
1778;DHT22;886;50.082;8.222;2022-07-12T04:46:32;16.50;99.90
1778;DHT22;886;50.082;8.222;2022-07-12T04:48:59;16.60;99.90
1778;DHT22;886;50.082;8.222;2022-07-12T04:51:27;16.70;99.90
1778;DHT22;886;50.082;8.222;2022-07-12T04:53:57;16.70;99.90
1778;DHT22;886;50.082;8.222;2022-07-12T04:56:24;16.80;99.90
1778;DHT22;886;50.082;8.222;2022-07-12T04:58:51;16.80;99.90
1778;DHT22;886;50.082;8.222;2022-07-12T05:01:29;16.70;99.90
1778;DHT22;886;50.082;8.222;2022-07-12T05:03:56;16.80;99.90
1778;DHT22;886;50.082;8.222;2022-07-12T05:06:23;16.90;99.90
1778;DHT22;886;50.082;8.222;2022-07-12T05:08:51;16.90;99.90
1778;DHT22;886;50.082;8.222;2022-07-12T05:11:18;17.00;99.90
1778;DHT22;886;50.082;8.222;2022-07-12T05:13:46;17.00;99.90
1778;DHT22;886;50.082;8.222;2022-07-12T05:16:13;17.10;99.90
1778;DHT22;886;50.082;8.222;2022-07-12T05:18:42;17.10;99.90
1778;DHT22;886;50.082;8.222;2022-07-12T05:21:09;17.00;99.90
1778;DHT22;886;50.082;8.222;2022-07-12T05:23:37;17.00;99.90
1778;DHT22;886;50.082;8.222;2022-07-12T05:26:05;17.00;99.90
1778;DHT22;886;50.082;8.222;2022-07-12T05:28:32;17.00;99.90
1778;DHT22;886;50.082;8.222;2022-07-12T05:30:59;17.00;99.90
1778;DHT22;886;50.082;8.222;2022-07-12T05:33:26;17.10;99.90
1778;DHT22;886;50.082;8.222;2022-07-12T05:35:55;17.20;99.90
1778;DHT22;886;50.082;8.222;2022-07-12T05:38:22;17.20;99.90
1778;DHT22;886;50.082;8.222;2022-07-12T05:40:49;17.40;99.90
1778;DHT22;886;50.082;8.222;2022-07-12T05:43:17;17.50;99.90
1778;DHT22;886;50.082;8.222;2022-07-12T05:45:44;17.60;99.90
1778;DHT22;886;50.082;8.222;2022-07-12T05:48:11;17.70;99.90
1778;DHT22;886;50.082;8.222;2022-07-12T05:50:38;17.80;99.90
1778;DHT22;886;50.082;8.222;2022-07-12T05:53:07;17.80;99.90
1778;DHT22;886;50.082;8.222;2022-07-12T05:55:50;17.90;99.90
1778;DHT22;886;50.082;8.222;2022-07-12T05:58:19;18.00;99.90
1778;DHT22;886;50.082;8.222;2022-07-12T06:00:47;18.00;99.90
1778;DHT22;886;50.082;8.222;2022-07-12T06:03:16;18.10;99.90
1778;DHT22;886;50.082;8.222;2022-07-12T06:05:51;18.20;99.90
1778;DHT22;886;50.082;8.222;2022-07-12T06:08:19;18.20;99.90
1778;DHT22;886;50.082;8.222;2022-07-12T06:10:46;18.30;99.90
1778;DHT22;886;50.082;8.222;2022-07-12T06:13:13;18.40;99.90
1778;DHT22;886;50.082;8.222;2022-07-12T06:15:41;18.50;99.90
1778;DHT22;886;50.082;8.222;2022-07-12T06:18:08;18.60;99.90
1778;DHT22;886;50.082;8.222;2022-07-12T06:20:35;18.80;99.90
1778;DHT22;886;50.082;8.222;2022-07-12T06:23:02;19.10;99.90
1778;DHT22;886;50.082;8.222;2022-07-12T06:25:30;19.50;99.90
1778;DHT22;886;50.082;8.222;2022-07-12T06:28:09;19.80;99.80
1778;DHT22;886;50.082;8.222;2022-07-12T06:30:37;20.30;98.90
1778;DHT22;886;50.082;8.222;2022-07-12T06:33:04;20.50;98.30
1778;DHT22;886;50.082;8.222;2022-07-12T06:35:32;20.70;97.70
1778;DHT22;886;50.082;8.222;2022-07-12T06:38:00;20.80;97.60
1778;DHT22;886;50.082;8.222;2022-07-12T06:40:28;20.90;97.50
1778;DHT22;886;50.082;8.222;2022-07-12T06:42:56;20.90;97.40
1778;DHT22;886;50.082;8.222;2022-07-12T06:45:24;20.90;97.10
1778;DHT22;886;50.082;8.222;2022-07-12T06:47:51;21.00;96.90
1778;DHT22;886;50.082;8.222;2022-07-12T06:50:19;21.00;97.00
1778;DHT22;886;50.082;8.222;2022-07-12T06:52:46;20.90;97.20
1778;DHT22;886;50.082;8.222;2022-07-12T06:55:16;21.00;97.20
1778;DHT22;886;50.082;8.222;2022-07-12T06:57:45;21.00;97.20
1778;DHT22;886;50.082;8.222;2022-07-12T07:00:12;21.20;97.10
1778;DHT22;886;50.082;8.222;2022-07-12T07:02:39;21.40;96.80
1778;DHT22;886;50.082;8.222;2022-07-12T07:05:07;21.40;96.60
1778;DHT22;886;50.082;8.222;2022-07-12T07:07:37;21.40;96.20
1778;DHT22;886;50.082;8.222;2022-07-12T07:10:10;21.50;96.20
1778;DHT22;886;50.082;8.222;2022-07-12T07:12:40;21.40;96.00
1778;DHT22;886;50.082;8.222;2022-07-12T07:15:10;21.90;95.20
1778;DHT22;886;50.082;8.222;2022-07-12T07:17:37;22.90;94.00
1778;DHT22;886;50.082;8.222;2022-07-12T07:20:05;23.20;92.30
1778;DHT22;886;50.082;8.222;2022-07-12T07:22:32;23.10;92.00
1778;DHT22;886;50.082;8.222;2022-07-12T07:25:00;23.50;92.00
1778;DHT22;886;50.082;8.222;2022-07-12T07:27:27;23.70;91.50
1778;DHT22;886;50.082;8.222;2022-07-12T07:29:54;24.00;91.50
1778;DHT22;886;50.082;8.222;2022-07-12T07:32:41;24.70;90.10
1778;DHT22;886;50.082;8.222;2022-07-12T07:35:08;25.30;88.30
1778;DHT22;886;50.082;8.222;2022-07-12T07:37:35;25.30;86.90
1778;DHT22;886;50.082;8.222;2022-07-12T07:40:03;24.80;87.20
1778;DHT22;886;50.082;8.222;2022-07-12T07:42:36;24.20;89.00
1778;DHT22;886;50.082;8.222;2022-07-12T07:45:04;23.70;90.60
1778;DHT22;886;50.082;8.222;2022-07-12T07:47:49;23.40;91.30
1778;DHT22;886;50.082;8.222;2022-07-12T07:50:37;23.30;91.60
1778;DHT22;886;50.082;8.222;2022-07-12T07:53:05;23.30;91.60
1778;DHT22;886;50.082;8.222;2022-07-12T07:55:32;23.30;91.80
1778;DHT22;886;50.082;8.222;2022-07-12T07:57:59;23.30;91.90
1778;DHT22;886;50.082;8.222;2022-07-12T08:00:30;23.20;92.00
1778;DHT22;886;50.082;8.222;2022-07-12T08:02:58;23.20;91.80
1778;DHT22;886;50.082;8.222;2022-07-12T08:05:25;23.10;91.80
1778;DHT22;886;50.082;8.222;2022-07-12T08:07:55;23.00;92.10
1778;DHT22;886;50.082;8.222;2022-07-12T08:10:22;22.90;92.30
1778;DHT22;886;50.082;8.222;2022-07-12T08:12:52;22.90;92.10
1778;DHT22;886;50.082;8.222;2022-07-12T08:15:19;22.90;92.30
1778;DHT22;886;50.082;8.222;2022-07-12T08:17:46;22.80;92.20
1778;DHT22;886;50.082;8.222;2022-07-12T08:20:22;22.80;92.50
1778;DHT22;886;50.082;8.222;2022-07-12T08:23:10;22.90;92.30
1778;DHT22;886;50.082;8.222;2022-07-12T08:25:37;22.90;92.30
1778;DHT22;886;50.082;8.222;2022-07-12T08:28:05;22.80;92.00
1778;DHT22;886;50.082;8.222;2022-07-12T08:30:32;22.80;92.10
1778;DHT22;886;50.082;8.222;2022-07-12T08:33:08;22.70;92.40
1778;DHT22;886;50.082;8.222;2022-07-12T08:35:37;22.80;92.20
1778;DHT22;886;50.082;8.222;2022-07-12T08:38:04;22.80;92.10
1778;DHT22;886;50.082;8.222;2022-07-12T08:40:31;22.90;92.00
1778;DHT22;886;50.082;8.222;2022-07-12T08:42:58;23.00;91.80
1778;DHT22;886;50.082;8.222;2022-07-12T08:45:32;23.00;91.70
1778;DHT22;886;50.082;8.222;2022-07-12T08:48:00;23.10;91.60
1778;DHT22;886;50.082;8.222;2022-07-12T08:50:27;23.20;91.50
1778;DHT22;886;50.082;8.222;2022-07-12T08:52:56;23.20;91.40
1778;DHT22;886;50.082;8.222;2022-07-12T08:55:31;23.30;91.50
1778;DHT22;886;50.082;8.222;2022-07-12T08:58:02;23.30;90.90
1778;DHT22;886;50.082;8.222;2022-07-12T09:00:33;23.40;90.50
1778;DHT22;886;50.082;8.222;2022-07-12T09:03:03;23.40;90.60
1778;DHT22;886;50.082;8.222;2022-07-12T09:05:31;23.50;90.70
1778;DHT22;886;50.082;8.222;2022-07-12T09:08:05;23.50;90.70
1778;DHT22;886;50.082;8.222;2022-07-12T09:10:34;23.50;90.50
1778;DHT22;886;50.082;8.222;2022-07-12T09:13:01;23.50;90.10
1778;DHT22;886;50.082;8.222;2022-07-12T09:15:29;23.50;89.00
1778;DHT22;886;50.082;8.222;2022-07-12T09:18:00;23.40;88.90
1778;DHT22;886;50.082;8.222;2022-07-12T09:20:29;23.30;88.60
1778;DHT22;886;50.082;8.222;2022-07-12T09:22:59;23.30;88.90
1778;DHT22;886;50.082;8.222;2022-07-12T09:25:29;23.20;88.80
1778;DHT22;886;50.082;8.222;2022-07-12T09:27:58;23.00;89.20
1778;DHT22;886;50.082;8.222;2022-07-12T09:30:28;23.00;89.30
1778;DHT22;886;50.082;8.222;2022-07-12T09:33:00;22.90;89.60
1778;DHT22;886;50.082;8.222;2022-07-12T09:35:58;22.90;90.70
1778;DHT22;886;50.082;8.222;2022-07-12T09:38:50;23.20;90.20
1778;DHT22;886;50.082;8.222;2022-07-12T09:41:21;23.50;88.70
1778;DHT22;886;50.082;8.222;2022-07-12T09:43:49;23.50;88.80
1778;DHT22;886;50.082;8.222;2022-07-12T09:46:17;23.40;89.30
1778;DHT22;886;50.082;8.222;2022-07-12T09:48:45;23.40;89.90
1778;DHT22;886;50.082;8.222;2022-07-12T09:51:14;23.50;87.90
1778;DHT22;886;50.082;8.222;2022-07-12T09:53:43;23.60;88.10
1778;DHT22;886;50.082;8.222;2022-07-12T09:56:12;23.60;88.90
1778;DHT22;886;50.082;8.222;2022-07-12T09:58:52;23.60;88.90
1778;DHT22;886;50.082;8.222;2022-07-12T10:01:20;23.70;88.50
1778;DHT22;886;50.082;8.222;2022-07-12T10:03:48;23.70;88.80
1778;DHT22;886;50.082;8.222;2022-07-12T10:06:20;23.80;87.90
1778;DHT22;886;50.082;8.222;2022-07-12T10:08:54;23.70;87.40
1778;DHT22;886;50.082;8.222;2022-07-12T10:11:24;23.80;86.50
1778;DHT22;886;50.082;8.222;2022-07-12T10:14:14;23.90;85.40
1778;DHT22;886;50.082;8.222;2022-07-12T10:16:45;24.10;84.50
1778;DHT22;886;50.082;8.222;2022-07-12T10:19:21;24.10;84.40
1778;DHT22;886;50.082;8.222;2022-07-12T10:21:54;24.10;84.50
1778;DHT22;886;50.082;8.222;2022-07-12T10:24:48;24.20;84.60
1778;DHT22;886;50.082;8.222;2022-07-12T10:27:30;24.10;84.80
1778;DHT22;886;50.082;8.222;2022-07-12T10:30:30;24.10;83.80
1778;DHT22;886;50.082;8.222;2022-07-12T10:32:58;23.90;84.40
1778;DHT22;886;50.082;8.222;2022-07-12T10:35:27;24.00;84.00
1778;DHT22;886;50.082;8.222;2022-07-12T10:38:18;24.10;83.50
1778;DHT22;886;50.082;8.222;2022-07-12T10:40:54;24.30;82.30
1778;DHT22;886;50.082;8.222;2022-07-12T10:43:28;24.30;81.90
1778;DHT22;886;50.082;8.222;2022-07-12T10:46:22;24.30;82.10
1778;DHT22;886;50.082;8.222;2022-07-12T10:48:51;24.40;81.60
1778;DHT22;886;50.082;8.222;2022-07-12T10:51:21;24.40;82.00
1778;DHT22;886;50.082;8.222;2022-07-12T10:53:49;24.40;82.30
1778;DHT22;886;50.082;8.222;2022-07-12T10:56:24;24.50;80.50
1778;DHT22;886;50.082;8.222;2022-07-12T10:58:59;24.60;80.70
1778;DHT22;886;50.082;8.222;2022-07-12T11:01:29;24.60;81.50
1778;DHT22;886;50.082;8.222;2022-07-12T11:04:04;24.60;81.60
1778;DHT22;886;50.082;8.222;2022-07-12T11:06:35;24.70;81.20
1778;DHT22;886;50.082;8.222;2022-07-12T11:09:07;24.70;81.40
1778;DHT22;886;50.082;8.222;2022-07-12T11:11:41;24.70;81.10
1778;DHT22;886;50.082;8.222;2022-07-12T11:14:11;24.80;81.70
1778;DHT22;886;50.082;8.222;2022-07-12T11:16:46;24.90;81.40
1778;DHT22;886;50.082;8.222;2022-07-12T11:19:14;24.90;81.10
1778;DHT22;886;50.082;8.222;2022-07-12T11:21:45;24.90;81.00
1778;DHT22;886;50.082;8.222;2022-07-12T11:24:16;24.90;80.80
1778;DHT22;886;50.082;8.222;2022-07-12T11:26:44;25.00;80.70
1778;DHT22;886;50.082;8.222;2022-07-12T11:29:11;25.00;80.30
1778;DHT22;886;50.082;8.222;2022-07-12T11:31:41;25.10;80.80
1778;DHT22;886;50.082;8.222;2022-07-12T11:34:20;25.10;80.10
1778;DHT22;886;50.082;8.222;2022-07-12T11:36:51;25.10;79.20
1778;DHT22;886;50.082;8.222;2022-07-12T11:39:30;25.20;79.20
1778;DHT22;886;50.082;8.222;2022-07-12T11:41:58;25.30;78.10
1778;DHT22;886;50.082;8.222;2022-07-12T11:44:41;25.30;77.70
1778;DHT22;886;50.082;8.222;2022-07-12T11:47:10;25.40;78.90
1778;DHT22;886;50.082;8.222;2022-07-12T11:49:42;25.40;78.30
1778;DHT22;886;50.082;8.222;2022-07-12T11:52:12;25.40;77.60
1778;DHT22;886;50.082;8.222;2022-07-12T11:54:40;25.40;76.70
1778;DHT22;886;50.082;8.222;2022-07-12T11:57:08;25.50;76.50
1778;DHT22;886;50.082;8.222;2022-07-12T11:59:35;25.40;75.60
1778;DHT22;886;50.082;8.222;2022-07-12T12:02:07;25.50;76.10
1778;DHT22;886;50.082;8.222;2022-07-12T12:04:46;25.50;76.90
1778;DHT22;886;50.082;8.222;2022-07-12T12:07:14;25.60;74.70
1778;DHT22;886;50.082;8.222;2022-07-12T12:10:01;25.60;74.10
1778;DHT22;886;50.082;8.222;2022-07-12T12:12:36;25.60;74.40
1778;DHT22;886;50.082;8.222;2022-07-12T12:15:12;25.60;75.40
1778;DHT22;886;50.082;8.222;2022-07-12T12:17:45;25.60;74.80
1778;DHT22;886;50.082;8.222;2022-07-12T12:20:16;25.60;75.80
1778;DHT22;886;50.082;8.222;2022-07-12T12:22:46;25.60;75.30
1778;DHT22;886;50.082;8.222;2022-07-12T12:25:14;25.60;75.70
1778;DHT22;886;50.082;8.222;2022-07-12T12:27:43;25.60;76.40
1778;DHT22;886;50.082;8.222;2022-07-12T12:30:32;25.70;76.90
1778;DHT22;886;50.082;8.222;2022-07-12T12:33:04;25.80;76.60
1778;DHT22;886;50.082;8.222;2022-07-12T12:35:37;25.70;77.60
1778;DHT22;886;50.082;8.222;2022-07-12T12:38:11;25.80;76.70
1778;DHT22;886;50.082;8.222;2022-07-12T12:40:49;25.80;77.00
1778;DHT22;886;50.082;8.222;2022-07-12T12:43:21;25.80;76.90
1778;DHT22;886;50.082;8.222;2022-07-12T12:45:51;25.80;76.30
1778;DHT22;886;50.082;8.222;2022-07-12T12:48:20;25.80;76.40
1778;DHT22;886;50.082;8.222;2022-07-12T12:50:53;25.70;76.70
1778;DHT22;886;50.082;8.222;2022-07-12T12:53:22;25.70;76.00
1778;DHT22;886;50.082;8.222;2022-07-12T12:55:51;25.80;75.30
1778;DHT22;886;50.082;8.222;2022-07-12T12:58:21;25.90;74.00
1778;DHT22;886;50.082;8.222;2022-07-12T13:00:52;25.90;75.50
1778;DHT22;886;50.082;8.222;2022-07-12T13:03:21;26.00;75.50
1778;DHT22;886;50.082;8.222;2022-07-12T13:05:52;26.10;75.10
1778;DHT22;886;50.082;8.222;2022-07-12T13:08:19;26.20;74.30
1778;DHT22;886;50.082;8.222;2022-07-12T13:10:48;26.20;73.20
1778;DHT22;886;50.082;8.222;2022-07-12T13:13:36;26.20;73.60
1778;DHT22;886;50.082;8.222;2022-07-12T13:16:04;26.20;73.80
1778;DHT22;886;50.082;8.222;2022-07-12T13:18:38;26.20;74.00
1778;DHT22;886;50.082;8.222;2022-07-12T13:21:07;26.20;72.90
1778;DHT22;886;50.082;8.222;2022-07-12T13:23:34;26.40;73.30
1778;DHT22;886;50.082;8.222;2022-07-12T13:26:04;26.40;73.80
1778;DHT22;886;50.082;8.222;2022-07-12T13:28:31;26.40;73.40
1778;DHT22;886;50.082;8.222;2022-07-12T13:31:03;26.40;72.40
1778;DHT22;886;50.082;8.222;2022-07-12T13:33:33;26.40;73.50
1778;DHT22;886;50.082;8.222;2022-07-12T13:36:01;26.40;73.70
1778;DHT22;886;50.082;8.222;2022-07-12T13:38:30;26.40;74.70
1778;DHT22;886;50.082;8.222;2022-07-12T13:40:57;26.30;74.00
1778;DHT22;886;50.082;8.222;2022-07-12T13:43:24;26.30;74.90
1778;DHT22;886;50.082;8.222;2022-07-12T13:45:52;26.30;74.70
1778;DHT22;886;50.082;8.222;2022-07-12T13:48:22;26.30;75.00
1778;DHT22;886;50.082;8.222;2022-07-12T13:50:49;26.30;74.60
1778;DHT22;886;50.082;8.222;2022-07-12T13:53:37;26.40;75.00
1778;DHT22;886;50.082;8.222;2022-07-12T13:56:05;26.40;74.30
1778;DHT22;886;50.082;8.222;2022-07-12T13:58:33;26.30;73.90
1778;DHT22;886;50.082;8.222;2022-07-12T14:01:00;26.30;72.70
1778;DHT22;886;50.082;8.222;2022-07-12T14:03:28;26.40;73.10
1778;DHT22;886;50.082;8.222;2022-07-12T14:05:56;26.40;71.00
1778;DHT22;886;50.082;8.222;2022-07-12T14:08:23;26.50;71.20
1778;DHT22;886;50.082;8.222;2022-07-12T14:10:52;26.50;71.50
1778;DHT22;886;50.082;8.222;2022-07-12T14:13:19;26.50;71.60
1778;DHT22;886;50.082;8.222;2022-07-12T14:15:46;26.50;72.00
1778;DHT22;886;50.082;8.222;2022-07-12T14:18:16;26.60;71.10
1778;DHT22;886;50.082;8.222;2022-07-12T14:20:44;26.60;71.60
1778;DHT22;886;50.082;8.222;2022-07-12T14:23:13;26.50;72.10
1778;DHT22;886;50.082;8.222;2022-07-12T14:25:40;26.50;72.40
1778;DHT22;886;50.082;8.222;2022-07-12T14:28:09;26.50;71.60
1778;DHT22;886;50.082;8.222;2022-07-12T14:30:36;26.50;71.20
1778;DHT22;886;50.082;8.222;2022-07-12T14:33:03;26.50;71.10
1778;DHT22;886;50.082;8.222;2022-07-12T14:35:33;26.50;71.10
1778;DHT22;886;50.082;8.222;2022-07-12T14:38:00;26.60;69.70
1778;DHT22;886;50.082;8.222;2022-07-12T14:40:27;26.70;69.70
1778;DHT22;886;50.082;8.222;2022-07-12T14:42:54;26.60;70.10
1778;DHT22;886;50.082;8.222;2022-07-12T14:45:25;26.60;70.10
1778;DHT22;886;50.082;8.222;2022-07-12T14:47:52;26.70;69.70
1778;DHT22;886;50.082;8.222;2022-07-12T14:50:19;26.70;69.90
1778;DHT22;886;50.082;8.222;2022-07-12T14:52:53;26.60;69.80
1778;DHT22;886;50.082;8.222;2022-07-12T14:55:21;26.70;68.90
1778;DHT22;886;50.082;8.222;2022-07-12T14:57:48;26.70;68.20
1778;DHT22;886;50.082;8.222;2022-07-12T15:00:15;26.80;68.00
1778;DHT22;886;50.082;8.222;2022-07-12T15:02:43;26.80;68.50
1778;DHT22;886;50.082;8.222;2022-07-12T15:05:20;26.80;69.20
1778;DHT22;886;50.082;8.222;2022-07-12T15:07:47;26.80;69.30
1778;DHT22;886;50.082;8.222;2022-07-12T15:10:14;26.90;68.60
1778;DHT22;886;50.082;8.222;2022-07-12T15:12:41;27.10;67.70
1778;DHT22;886;50.082;8.222;2022-07-12T15:15:09;27.10;67.80
1778;DHT22;886;50.082;8.222;2022-07-12T15:17:36;27.00;68.10
1778;DHT22;886;50.082;8.222;2022-07-12T15:20:05;27.10;67.30
1778;DHT22;886;50.082;8.222;2022-07-12T15:22:35;27.10;67.00
1778;DHT22;886;50.082;8.222;2022-07-12T15:25:03;27.00;68.00
1778;DHT22;886;50.082;8.222;2022-07-12T15:27:30;27.00;68.80
1778;DHT22;886;50.082;8.222;2022-07-12T15:29:57;26.90;69.10
1778;DHT22;886;50.082;8.222;2022-07-12T15:32:25;26.90;70.00
1778;DHT22;886;50.082;8.222;2022-07-12T15:34:53;26.80;69.00
1778;DHT22;886;50.082;8.222;2022-07-12T15:37:22;26.80;68.10
1778;DHT22;886;50.082;8.222;2022-07-12T15:39:53;26.80;68.50
1778;DHT22;886;50.082;8.222;2022-07-12T15:42:21;26.90;67.70
1778;DHT22;886;50.082;8.222;2022-07-12T15:44:48;26.90;68.60
1778;DHT22;886;50.082;8.222;2022-07-12T15:47:19;26.80;69.10
1778;DHT22;886;50.082;8.222;2022-07-12T15:49:46;26.80;67.60
1778;DHT22;886;50.082;8.222;2022-07-12T15:52:17;26.90;66.90
1778;DHT22;886;50.082;8.222;2022-07-12T15:55:04;26.80;67.70
1778;DHT22;886;50.082;8.222;2022-07-12T15:57:36;26.80;68.00
1778;DHT22;886;50.082;8.222;2022-07-12T16:00:05;26.80;68.00
1778;DHT22;886;50.082;8.222;2022-07-12T16:02:36;26.80;68.00
1778;DHT22;886;50.082;8.222;2022-07-12T16:05:07;26.80;68.30
1778;DHT22;886;50.082;8.222;2022-07-12T16:07:34;26.80;68.80
1778;DHT22;886;50.082;8.222;2022-07-12T16:10:09;26.80;68.40
1778;DHT22;886;50.082;8.222;2022-07-12T16:12:36;26.80;68.50
1778;DHT22;886;50.082;8.222;2022-07-12T16:15:07;26.70;67.90
1778;DHT22;886;50.082;8.222;2022-07-12T16:17:35;26.70;67.70
1778;DHT22;886;50.082;8.222;2022-07-12T16:20:02;26.70;68.10
1778;DHT22;886;50.082;8.222;2022-07-12T16:22:38;26.70;68.60
1778;DHT22;886;50.082;8.222;2022-07-12T16:25:05;26.70;68.00
1778;DHT22;886;50.082;8.222;2022-07-12T16:27:34;26.70;67.80
1778;DHT22;886;50.082;8.222;2022-07-12T16:30:08;26.70;68.20
1778;DHT22;886;50.082;8.222;2022-07-12T16:32:35;26.70;68.70
1778;DHT22;886;50.082;8.222;2022-07-12T16:35:03;26.70;69.00